Time;durP1;ratioP1;P1;durP2;ratioP2;P2;SDS_P1;SDS_P2;PMS_P1;PMS_P2;Temp;Humidity;BMP_temperature;BMP_pressure;BME280_temperature;BME280_humidity;BME280_pressure;Samples;Min_cycle;Max_cycle;Signal;HPM_P1;HPM_P2
2022/03/08 00:01:09;;;;;;;16.10;8.35;;;;;;;;;;1779954;80;21059;-66
2022/03/08 00:03:36;;;;;;;19.77;10.13;;;;;;;;;;1778456;80;21023;-66
2022/03/08 00:06:02;;;;;;;13.32;8.68;;;;;;;;;;1796401;80;21024;-67
2022/03/08 00:08:29;;;;;;;17.32;9.55;;;;;;;;;;1787024;80;21110;-66
2022/03/08 00:10:55;;;;;;;16.87;8.68;;;;;;;;;;1790948;80;21605;-67
2022/03/08 00:13:22;;;;;;;18.32;8.60;;;;;;;;;;1769203;80;21021;-67
2022/03/08 00:15:49;;;;;;;20.70;8.88;;;;;;;;;;1785198;80;22099;-66
2022/03/08 00:18:17;;;;;;;14.83;7.65;;;;;;;;;;1783627;80;21023;-66
2022/03/08 00:20:44;;;;;;;15.13;7.72;;;;;;;;;;1775379;80;21072;-66
2022/03/08 00:23:11;;;;;;;17.65;7.28;;;;;;;;;;1777438;80;21127;-66
2022/03/08 00:25:38;;;;;;;12.90;7.47;;;;;;;;;;1764565;80;21559;-66
2022/03/08 00:28:05;;;;;;;14.80;7.65;;;;;;;;;;1769411;80;21059;-66
2022/03/08 00:30:34;;;;;;;12.00;6.62;;;;;;;;;;1768008;80;21031;-66
2022/03/08 00:33:01;;;;;;;15.70;7.90;;;;;;;;;;1776889;80;21059;-66
2022/03/08 00:35:27;;;;;;;14.20;6.75;;;;;;;;;;1782853;80;21040;-66
2022/03/08 00:37:55;;;;;;;14.18;7.37;;;;;;;;;;1791505;80;21067;-66
2022/03/08 00:40:23;;;;;;;15.35;7.42;;;;;;;;;;1791788;80;21063;-66
2022/03/08 00:42:50;;;;;;;18.62;8.03;;;;;;;;;;1791855;80;21066;-66
2022/03/08 00:45:17;;;;;;;17.62;8.88;;;;;;;;;;1792376;80;21551;-66
2022/03/08 00:47:43;;;;;;;19.35;9.18;;;;;;;;;;1792078;80;21036;-66
2022/03/08 00:50:11;;;;;;;12.47;6.97;;;;;;;;;;1791951;80;21048;-66
2022/03/08 00:52:38;;;;;;;18.77;8.00;;;;;;;;;;1790739;80;21048;-66
2022/03/08 00:55:06;;;;;;;15.28;7.50;;;;;;;;;;1791973;80;21039;-66
2022/03/08 00:57:32;;;;;;;16.35;9.20;;;;;;;;;;1792276;80;21031;-66
2022/03/08 00:59:59;;;;;;;13.10;7.30;;;;;;;;;;1790967;80;21075;-66
2022/03/08 01:02:25;;;;;;;13.08;7.30;;;;;;;;;;1792018;80;21031;-66
2022/03/08 01:04:51;;;;;;;17.15;8.28;;;;;;;;;;1792861;80;21084;-66
2022/03/08 01:07:19;;;;;;;14.70;7.95;;;;;;;;;;1790902;80;21070;-67
2022/03/08 01:09:46;;;;;;;18.42;9.48;;;;;;;;;;1791725;80;20973;-66
2022/03/08 01:12:13;;;;;;;16.80;9.13;;;;;;;;;;1790261;80;21016;-66
2022/03/08 01:14:40;;;;;;;20.62;10.28;;;;;;;;;;1790825;80;21063;-66
2022/03/08 01:17:07;;;;;;;13.65;7.12;;;;;;;;;;1790413;80;21636;-67
2022/03/08 01:19:33;;;;;;;18.10;8.35;;;;;;;;;;1790480;80;21039;-66
2022/03/08 01:22:00;;;;;;;18.60;8.13;;;;;;;;;;1790738;80;21110;-67
2022/03/08 01:24:29;;;;;;;19.52;9.40;;;;;;;;;;1791528;80;21027;-66
2022/03/08 01:26:57;;;;;;;17.12;8.75;;;;;;;;;;1791193;80;21088;-66
2022/03/08 01:29:23;;;;;;;16.42;9.35;;;;;;;;;;1791286;80;21075;-65
2022/03/08 01:31:52;;;;;;;18.75;9.48;;;;;;;;;;1791469;80;21574;-66
2022/03/08 01:34:18;;;;;;;14.40;8.65;;;;;;;;;;1791767;80;21013;-66
2022/03/08 01:36:47;;;;;;;21.17;10.23;;;;;;;;;;1791834;80;21067;-66
2022/03/08 01:39:13;;;;;;;17.10;9.43;;;;;;;;;;1791170;80;21047;-66
2022/03/08 01:41:40;;;;;;;19.57;9.95;;;;;;;;;;1791652;80;21001;-66
2022/03/08 01:44:08;;;;;;;20.10;9.75;;;;;;;;;;1791390;80;21059;-66
2022/03/08 01:46:36;;;;;;;16.45;9.85;;;;;;;;;;1791108;80;21032;-66
2022/03/08 01:49:04;;;;;;;19.92;8.30;;;;;;;;;;1791955;80;21000;-67
2022/03/08 01:51:31;;;;;;;13.58;7.62;;;;;;;;;;1790767;80;21050;-67
2022/03/08 01:53:57;;;;;;;19.02;8.63;;;;;;;;;;1791981;80;21040;-67
2022/03/08 01:56:23;;;;;;;16.90;7.47;;;;;;;;;;1791160;80;21056;-68
2022/03/08 01:58:50;;;;;;;16.27;8.25;;;;;;;;;;1791847;80;21555;-66
2022/03/08 02:04:13;;;;;;;15.18;7.97;;;;;;;;;;1659505;81;73925;-69
2022/03/08 02:06:40;;;;;;;10.50;6.22;;;;;;;;;;1649366;85;21578;-70
2022/03/08 02:09:07;;;;;;;17.00;8.58;;;;;;;;;;1660363;85;21049;-69
2022/03/08 02:11:33;;;;;;;14.33;6.58;;;;;;;;;;1696767;81;21032;-69
2022/03/08 02:14:01;;;;;;;14.90;7.17;;;;;;;;;;1687910;82;21088;-69
2022/03/08 02:16:27;;;;;;;13.30;7.33;;;;;;;;;;1694934;83;21049;-69
2022/03/08 02:18:53;;;;;;;12.25;6.75;;;;;;;;;;1692546;83;21044;-69
2022/03/08 02:21:21;;;;;;;14.85;6.42;;;;;;;;;;1704290;82;21571;-69
2022/03/08 02:23:47;;;;;;;10.72;5.95;;;;;;;;;;1694791;82;21578;-68
2022/03/08 02:26:13;;;;;;;12.20;6.78;;;;;;;;;;1701036;83;21060;-69
2022/03/08 02:28:40;;;;;;;10.45;5.75;;;;;;;;;;1688471;83;21354;-68
2022/03/08 02:31:07;;;;;;;13.80;5.83;;;;;;;;;;1698292;81;21520;-68
2022/03/08 02:33:34;;;;;;;10.15;5.33;;;;;;;;;;1697900;83;21072;-68
2022/03/08 02:36:00;;;;;;;11.08;5.78;;;;;;;;;;1694344;83;21096;-68
2022/03/08 02:38:27;;;;;;;11.90;5.62;;;;;;;;;;1691690;83;21373;-68
2022/03/08 02:40:54;;;;;;;9.93;5.12;;;;;;;;;;1700353;82;21131;-68
2022/03/08 02:43:20;;;;;;;11.38;6.33;;;;;;;;;;1689328;83;21536;-68
2022/03/08 02:45:46;;;;;;;10.85;6.15;;;;;;;;;;1695929;82;21045;-68
2022/03/08 02:48:13;;;;;;;10.60;6.17;;;;;;;;;;1690772;83;21064;-68
2022/03/08 02:50:40;;;;;;;10.58;5.95;;;;;;;;;;1695922;82;21052;-68
2022/03/08 02:53:06;;;;;;;11.18;5.80;;;;;;;;;;1695350;83;21032;-68
2022/03/08 02:55:33;;;;;;;13.60;6.87;;;;;;;;;;1697845;83;21044;-68
2022/03/08 02:58:00;;;;;;;10.15;5.25;;;;;;;;;;1689199;83;21049;-68
2022/03/08 03:00:27;;;;;;;9.05;5.67;;;;;;;;;;1698370;82;21080;-69
2022/03/08 03:02:54;;;;;;;11.60;6.28;;;;;;;;;;1688419;83;21519;-69
2022/03/08 03:05:21;;;;;;;9.98;6.22;;;;;;;;;;1684804;83;21678;-69
2022/03/08 03:07:47;;;;;;;11.60;7.17;;;;;;;;;;1684818;84;21041;-69
2022/03/08 03:10:16;;;;;;;15.95;7.42;;;;;;;;;;1681189;84;21080;-69
2022/03/08 03:12:43;;;;;;;12.07;7.10;;;;;;;;;;1689343;84;21132;-68
2022/03/08 03:15:10;;;;;;;12.05;6.15;;;;;;;;;;1687069;84;21025;-68
2022/03/08 03:17:37;;;;;;;15.45;7.20;;;;;;;;;;1688405;84;21033;-68
2022/03/08 03:20:05;;;;;;;16.77;8.53;;;;;;;;;;1682427;84;21544;-67
2022/03/08 03:22:32;;;;;;;14.45;6.62;;;;;;;;;;1682004;84;21038;-68
2022/03/08 03:24:58;;;;;;;16.27;7.42;;;;;;;;;;1688431;84;21119;-68
2022/03/08 03:27:25;;;;;;;14.90;7.55;;;;;;;;;;1687909;84;21541;-68
2022/03/08 03:29:52;;;;;;;14.75;8.13;;;;;;;;;;1657061;85;21497;-69
2022/03/08 03:32:19;;;;;;;13.68;7.78;;;;;;;;;;1657842;86;21121;-69
2022/03/08 03:34:46;;;;;;;15.28;7.30;;;;;;;;;;1665461;85;21193;-69
2022/03/08 03:37:12;;;;;;;13.30;7.45;;;;;;;;;;1685656;84;21025;-69
2022/03/08 03:39:40;;;;;;;16.93;8.53;;;;;;;;;;1680438;83;21104;-69
2022/03/08 03:42:07;;;;;;;15.00;7.33;;;;;;;;;;1683059;84;21069;-69
2022/03/08 03:44:34;;;;;;;13.05;7.30;;;;;;;;;;1659944;86;21069;-69
2022/03/08 03:47:00;;;;;;;15.03;8.38;;;;;;;;;;1684333;84;21542;-69
2022/03/08 03:49:27;;;;;;;16.75;8.28;;;;;;;;;;1687539;83;21084;-69
2022/03/08 03:51:54;;;;;;;16.77;8.13;;;;;;;;;;1685443;83;21060;-69
2022/03/08 03:54:20;;;;;;;13.70;6.97;;;;;;;;;;1681319;84;21069;-69
2022/03/08 03:56:47;;;;;;;9.18;5.85;;;;;;;;;;1682289;83;21080;-69
2022/03/08 03:59:14;;;;;;;10.15;5.78;;;;;;;;;;1684549;83;22017;-69
2022/03/08 04:01:40;;;;;;;12.15;6.47;;;;;;;;;;1691888;84;21077;-69
2022/03/08 04:04:07;;;;;;;10.80;5.22;;;;;;;;;;1659621;85;21247;-69
2022/03/08 04:06:34;;;;;;;9.83;5.78;;;;;;;;;;1660500;85;21079;-69
2022/03/08 04:09:01;;;;;;;12.20;6.75;;;;;;;;;;1648721;85;21670;-69
2022/03/08 04:11:28;;;;;;;11.83;7.30;;;;;;;;;;1662666;85;21516;-69
2022/03/08 04:13:54;;;;;;;13.55;6.95;;;;;;;;;;1666390;85;21028;-69
2022/03/08 04:16:20;;;;;;;12.35;6.20;;;;;;;;;;1666030;85;21044;-69
2022/03/08 04:18:47;;;;;;;11.73;6.35;;;;;;;;;;1686777;83;21084;-69
2022/03/08 04:21:14;;;;;;;10.50;5.87;;;;;;;;;;1684655;83;21578;-69
2022/03/08 04:23:40;;;;;;;15.15;7.08;;;;;;;;;;1690636;83;21363;-69
2022/03/08 04:26:07;;;;;;;14.28;5.95;;;;;;;;;;1688322;83;21076;-69
2022/03/08 04:28:33;;;;;;;11.53;6.92;;;;;;;;;;1661994;85;21094;-69
2022/03/08 04:31:00;;;;;;;10.43;5.97;;;;;;;;;;1664603;86;21083;-69
2022/03/08 04:33:26;;;;;;;10.08;5.10;;;;;;;;;;1660991;86;21089;-69
2022/03/08 04:35:53;;;;;;;8.58;4.70;;;;;;;;;;1663195;85;21370;-69
2022/03/08 04:38:19;;;;;;;10.72;4.78;;;;;;;;;;1646187;84;21148;-69
2022/03/08 04:40:46;;;;;;;6.97;4.30;;;;;;;;;;1626946;86;21103;-69
2022/03/08 04:43:12;;;;;;;8.45;4.80;;;;;;;;;;1627938;86;21134;-69
2022/03/08 04:45:39;;;;;;;10.30;4.53;;;;;;;;;;1637091;86;21573;-69
2022/03/08 04:48:06;;;;;;;7.55;4.37;;;;;;;;;;1631804;86;21102;-69
2022/03/08 04:50:32;;;;;;;8.95;5.40;;;;;;;;;;1681553;83;20982;-69
2022/03/08 04:52:58;;;;;;;10.75;5.05;;;;;;;;;;1683948;83;21033;-69
2022/03/08 04:55:25;;;;;;;7.90;4.47;;;;;;;;;;1682921;84;22120;-69
2022/03/08 04:57:53;;;;;;;9.20;4.97;;;;;;;;;;1686119;84;21064;-69
2022/03/08 05:00:21;;;;;;;7.67;3.85;;;;;;;;;;1684523;84;21073;-69
2022/03/08 05:02:47;;;;;;;7.87;4.28;;;;;;;;;;1681440;84;21124;-69
2022/03/08 05:05:14;;;;;;;8.53;3.80;;;;;;;;;;1681219;83;21628;-69
2022/03/08 05:07:40;;;;;;;4.87;3.15;;;;;;;;;;1683820;84;21041;-69
2022/03/08 05:10:07;;;;;;;7.92;4.05;;;;;;;;;;1686717;84;21473;-69
2022/03/08 05:12:35;;;;;;;11.60;4.40;;;;;;;;;;1684257;83;21666;-69
2022/03/08 05:15:04;;;;;;;9.25;4.92;;;;;;;;;;1684134;83;21679;-69
2022/03/08 05:17:31;;;;;;;9.85;4.40;;;;;;;;;;1681984;84;21330;-69
2022/03/08 05:19:58;;;;;;;5.05;3.60;;;;;;;;;;1689858;84;21092;-70
2022/03/08 05:22:24;;;;;;;5.75;3.40;;;;;;;;;;1687322;84;21493;-69
2022/03/08 05:24:50;;;;;;;6.58;3.62;;;;;;;;;;1689463;84;21072;-69
2022/03/08 05:27:17;;;;;;;4.85;2.67;;;;;;;;;;1660112;85;21042;-69
2022/03/08 05:29:43;;;;;;;5.75;2.90;;;;;;;;;;1662188;85;21096;-67
2022/03/08 05:32:10;;;;;;;5.65;3.62;;;;;;;;;;1681312;84;21586;-68
2022/03/08 05:34:37;;;;;;;6.60;3.12;;;;;;;;;;1679773;84;21072;-68
2022/03/08 05:37:03;;;;;;;6.53;3.45;;;;;;;;;;1655517;86;21101;-68
2022/03/08 05:39:30;;;;;;;5.05;3.60;;;;;;;;;;1656139;86;21026;-68
2022/03/08 05:41:56;;;;;;;4.42;2.87;;;;;;;;;;1657174;85;21081;-68
2022/03/08 05:44:25;;;;;;;5.50;3.72;;;;;;;;;;1658540;85;21129;-68
2022/03/08 05:46:52;;;;;;;11.83;3.62;;;;;;;;;;1674152;85;21101;-68
2022/03/08 05:49:18;;;;;;;3.90;2.77;;;;;;;;;;1676170;85;21029;-68
2022/03/08 05:51:44;;;;;;;5.45;4.03;;;;;;;;;;1681011;85;21029;-69
2022/03/08 05:54:12;;;;;;;6.17;3.62;;;;;;;;;;1670688;85;21012;-68
2022/03/08 05:56:38;;;;;;;5.50;3.27;;;;;;;;;;1670346;85;21065;-68
2022/03/08 05:59:04;;;;;;;5.30;3.17;;;;;;;;;;1672595;85;21049;-69
2022/03/08 06:01:31;;;;;;;5.40;3.00;;;;;;;;;;1663017;85;21136;-69
2022/03/08 06:03:59;;;;;;;4.75;3.10;;;;;;;;;;1671644;84;21163;-68
2022/03/08 06:06:25;;;;;;;14.23;6.05;;;;;;;;;;1674203;85;21055;-69
2022/03/08 06:08:52;;;;;;;13.85;6.22;;;;;;;;;;1675719;85;21595;-69
2022/03/08 06:11:18;;;;;;;10.43;5.47;;;;;;;;;;1672288;85;21101;-69
2022/03/08 06:13:44;;;;;;;11.53;6.03;;;;;;;;;;1678212;85;21038;-69
2022/03/08 06:16:13;;;;;;;11.90;6.00;;;;;;;;;;1676260;85;21552;-68
2022/03/08 06:18:41;;;;;;;14.15;7.20;;;;;;;;;;1684662;84;21406;-69
2022/03/08 06:21:07;;;;;;;13.60;7.05;;;;;;;;;;1691488;83;21532;-69
2022/03/08 06:23:38;;;;;;;13.15;7.22;;;;;;;;;;1689467;83;20994;-69
2022/03/08 06:26:02;;;;;;;13.43;6.87;;;;;;;;;;1690675;83;21556;-69
2022/03/08 06:28:28;;;;;;;14.33;7.25;;;;;;;;;;1686520;84;21089;-69
2022/03/08 06:30:55;;;;;;;13.62;7.97;;;;;;;;;;1686971;83;21077;-69
2022/03/08 06:33:21;;;;;;;18.40;8.20;;;;;;;;;;1656310;86;21533;-69
2022/03/08 06:35:47;;;;;;;15.85;6.75;;;;;;;;;;1667981;85;21080;-69
2022/03/08 06:38:15;;;;;;;18.55;8.10;;;;;;;;;;1658929;85;21152;-69
2022/03/08 06:40:42;;;;;;;13.85;7.17;;;;;;;;;;1659965;86;21024;-69
2022/03/08 06:43:08;;;;;;;8.90;5.03;;;;;;;;;;1658261;86;21030;-69
2022/03/08 06:45:34;;;;;;;7.05;3.87;;;;;;;;;;1658634;85;21109;-69
2022/03/08 06:48:01;;;;;;;4.97;3.17;;;;;;;;;;1691614;84;21084;-69
2022/03/08 06:50:28;;;;;;;6.97;3.47;;;;;;;;;;1685626;84;21133;-68
2022/03/08 06:52:54;;;;;;;5.87;4.00;;;;;;;;;;1690584;84;21528;-69
2022/03/08 06:55:21;;;;;;;7.72;4.47;;;;;;;;;;1688035;84;21069;-69
2022/03/08 06:57:47;;;;;;;6.87;4.53;;;;;;;;;;1687986;83;21064;-69
2022/03/08 07:00:15;;;;;;;10.75;5.67;;;;;;;;;;1685767;83;21556;-69
2022/03/08 07:02:41;;;;;;;9.18;5.37;;;;;;;;;;1683893;84;21076;-69
2022/03/08 07:05:08;;;;;;;6.12;4.35;;;;;;;;;;1689726;84;21033;-68
2022/03/08 07:07:37;;;;;;;10.23;5.33;;;;;;;;;;1683264;84;21101;-69
2022/03/08 07:10:06;;;;;;;11.50;6.08;;;;;;;;;;1658721;85;21097;-68
2022/03/08 07:12:32;;;;;;;8.33;4.62;;;;;;;;;;1659964;86;21542;-69
2022/03/08 07:14:59;;;;;;;6.95;4.45;;;;;;;;;;1659427;85;21585;-69
2022/03/08 07:17:25;;;;;;;9.93;5.83;;;;;;;;;;1682527;84;21061;-69
2022/03/08 07:19:52;;;;;;;10.88;4.47;;;;;;;;;;1678688;84;21060;-69
2022/03/08 07:22:18;;;;;;;7.70;4.15;;;;;;;;;;1689976;83;22147;-69
2022/03/08 07:24:45;;;;;;;6.90;4.12;;;;;;;;;;1681069;84;21072;-69
2022/03/08 07:27:11;;;;;;;11.63;5.22;;;;;;;;;;1683469;84;21021;-68
2022/03/08 07:29:39;;;;;;;5.70;3.45;;;;;;;;;;1688894;83;21053;-69
2022/03/08 07:32:05;;;;;;;5.00;3.22;;;;;;;;;;1689731;84;21573;-69
2022/03/08 07:34:32;;;;;;;8.25;3.80;;;;;;;;;;1683115;83;21029;-67
2022/03/08 07:36:58;;;;;;;9.85;4.50;;;;;;;;;;1685251;84;21651;-68
2022/03/08 07:39:25;;;;;;;9.48;4.90;;;;;;;;;;1678550;84;21014;-68
2022/03/08 07:41:51;;;;;;;7.95;3.92;;;;;;;;;;1683393;84;21089;-67
2022/03/08 07:44:20;;;;;;;8.58;4.20;;;;;;;;;;1690051;83;21100;-68
2022/03/08 07:46:49;;;;;;;6.20;3.60;;;;;;;;;;1681811;84;20990;-68
2022/03/08 07:49:16;;;;;;;8.00;3.67;;;;;;;;;;1665940;86;21041;-67
2022/03/08 07:51:43;;;;;;;5.03;2.50;;;;;;;;;;1661183;86;21045;-68
2022/03/08 07:54:09;;;;;;;5.72;2.90;;;;;;;;;;1667482;86;21556;-67
2022/03/08 07:56:36;;;;;;;6.25;3.12;;;;;;;;;;1662411;85;21022;-68
2022/03/08 07:59:07;;;;;;;6.20;2.65;;;;;;;;;;1656827;86;21180;-69
2022/03/08 08:01:32;;;;;;;4.75;2.30;;;;;;;;;;1657854;85;21087;-69
2022/03/08 08:03:58;;;;;;;3.37;2.08;;;;;;;;;;1636482;86;21191;-69
2022/03/08 08:06:26;;;;;;;2.85;2.05;;;;;;;;;;1644374;85;21097;-69
2022/03/08 08:08:52;;;;;;;5.22;2.72;;;;;;;;;;1647791;86;21601;-69
2022/03/08 08:11:19;;;;;;;4.72;2.90;;;;;;;;;;1656511;84;21002;-68
2022/03/08 08:13:49;;;;;;;3.33;2.35;;;;;;;;;;1667621;85;21601;-68
2022/03/08 08:16:16;;;;;;;3.95;2.70;;;;;;;;;;1674233;85;21517;-68
2022/03/08 08:18:43;;;;;;;3.22;2.37;;;;;;;;;;1672292;85;21101;-68
2022/03/08 08:21:11;;;;;;;4.50;2.70;;;;;;;;;;1673801;85;21140;-68
2022/03/08 08:23:37;;;;;;;3.42;2.40;;;;;;;;;;1672806;85;21089;-68
2022/03/08 08:26:04;;;;;;;3.47;2.12;;;;;;;;;;1679278;85;21588;-69
2022/03/08 08:28:37;;;;;;;3.08;2.35;;;;;;;;;;1678774;84;21038;-69
2022/03/08 08:31:03;;;;;;;4.30;2.72;;;;;;;;;;1684271;83;21053;-69
2022/03/08 08:33:30;;;;;;;4.47;2.45;;;;;;;;;;1684336;84;21009;-69
2022/03/08 08:35:57;;;;;;;2.65;2.00;;;;;;;;;;1685645;84;21053;-70
2022/03/08 08:38:23;;;;;;;3.22;2.50;;;;;;;;;;1687252;84;21165;-69
2022/03/08 08:40:50;;;;;;;4.15;2.50;;;;;;;;;;1663370;85;21088;-69
2022/03/08 08:43:17;;;;;;;3.52;2.15;;;;;;;;;;1656002;86;21073;-69
2022/03/08 08:48:17;;;;;;;2.50;1.70;;;;;;;;;;1801994;79;23030;-67
2022/03/08 08:50:45;;;;;;;1.80;1.60;;;;;;;;;;1761824;81;21024;-67
2022/03/08 08:53:13;;;;;;;1.72;1.47;;;;;;;;;;1761867;81;21001;-67
2022/03/08 08:55:40;;;;;;;2.40;1.77;;;;;;;;;;1761724;81;21013;-67
2022/03/08 08:58:07;;;;;;;3.33;2.10;;;;;;;;;;1761716;81;21602;-68
2022/03/08 09:00:34;;;;;;;2.52;1.80;;;;;;;;;;1761540;81;21076;-66
2022/03/08 09:03:01;;;;;;;3.47;2.35;;;;;;;;;;1752712;81;21044;-66
2022/03/08 09:05:28;;;;;;;3.08;2.27;;;;;;;;;;1730028;83;21029;-65
2022/03/08 09:07:55;;;;;;;2.58;1.98;;;;;;;;;;1730090;83;21066;-66
2022/03/08 09:10:23;;;;;;;4.25;2.02;;;;;;;;;;1729855;83;22226;-70
2022/03/08 09:12:51;;;;;;;2.15;1.40;;;;;;;;;;1730263;82;21036;-70
2022/03/08 09:15:18;;;;;;;1.65;1.40;;;;;;;;;;1729945;83;21033;-69
2022/03/08 09:17:46;;;;;;;2.42;1.72;;;;;;;;;;1730228;83;20990;-69
2022/03/08 09:20:13;;;;;;;3.27;1.90;;;;;;;;;;1729893;83;21089;-70
2022/03/08 09:22:40;;;;;;;3.12;2.10;;;;;;;;;;1730152;82;21077;-69
2022/03/08 09:25:07;;;;;;;2.77;2.02;;;;;;;;;;1729948;83;20982;-69
2022/03/08 09:27:34;;;;;;;4.33;2.95;;;;;;;;;;1730032;83;21099;-69
2022/03/08 09:30:07;;;;;;;3.55;2.70;;;;;;;;;;1730039;83;21041;-69
2022/03/08 09:32:34;;;;;;;4.30;2.83;;;;;;;;;;1730176;83;21001;-70
2022/03/08 09:35:00;;;;;;;3.87;2.50;;;;;;;;;;1730258;83;21028;-70
2022/03/08 09:37:26;;;;;;;5.55;3.15;;;;;;;;;;1730179;83;21512;-70
2022/03/08 09:39:53;;;;;;;4.22;2.50;;;;;;;;;;1729975;83;21595;-70
2022/03/08 09:42:19;;;;;;;4.03;2.67;;;;;;;;;;1730030;83;21036;-70
2022/03/08 09:44:48;;;;;;;3.20;2.30;;;;;;;;;;1730264;83;21104;-70
2022/03/08 09:47:15;;;;;;;3.65;2.40;;;;;;;;;;1723637;82;21085;-70
2022/03/08 09:49:42;;;;;;;3.25;2.25;;;;;;;;;;1717385;83;21100;-70
2022/03/08 09:52:09;;;;;;;3.50;2.20;;;;;;;;;;1717356;83;20998;-70
2022/03/08 09:54:35;;;;;;;4.83;2.47;;;;;;;;;;1717591;83;21069;-70
2022/03/08 09:57:12;;;;;;;3.90;2.45;;;;;;;;;;1717242;83;21580;-70
2022/03/08 09:59:38;;;;;;;3.98;2.40;;;;;;;;;;1716928;83;21541;-71
2022/03/08 10:02:05;;;;;;;4.37;2.75;;;;;;;;;;1716685;83;21055;-71
2022/03/08 10:04:31;;;;;;;4.85;1.92;;;;;;;;;;1716785;82;21054;-71
2022/03/08 10:06:59;;;;;;;4.80;2.35;;;;;;;;;;1716574;83;21061;-72
2022/03/08 10:09:26;;;;;;;3.85;2.40;;;;;;;;;;1716910;83;21533;-71
2022/03/08 10:11:53;;;;;;;3.35;2.35;;;;;;;;;;1716920;83;21053;-72
2022/03/08 10:14:37;;;;;;;3.20;2.02;;;;;;;;;;1716838;83;21069;-71
2022/03/08 10:17:00;;;;;;;5.10;2.75;;;;;;;;;;1716418;83;21525;-70
2022/03/08 10:19:27;;;;;;;2.25;1.80;;;;;;;;;;1716969;83;21056;-70
2022/03/08 10:21:57;;;;;;;1.72;1.62;;;;;;;;;;1716616;83;20994;-71
2022/03/08 10:24:26;;;;;;;3.42;1.92;;;;;;;;;;1716996;83;21544;-71
2022/03/08 10:26:56;;;;;;;2.42;1.65;;;;;;;;;;1716655;83;21692;-71
2022/03/08 10:29:24;;;;;;;2.52;2.12;;;;;;;;;;1716843;83;20962;-71
2022/03/08 10:31:52;;;;;;;2.80;1.95;;;;;;;;;;1716769;83;21026;-71
2022/03/08 10:34:20;;;;;;;2.17;1.87;;;;;;;;;;1716074;82;21124;-70
2022/03/08 10:36:59;;;;;;;2.72;2.05;;;;;;;;;;1716885;83;21065;-71
2022/03/08 10:39:25;;;;;;;2.47;1.75;;;;;;;;;;1716820;83;21013;-71
2022/03/08 10:41:53;;;;;;;1.90;1.70;;;;;;;;;;1716813;83;21041;-71
2022/03/08 10:44:39;;;;;;;2.33;1.72;;;;;;;;;;1716900;83;21037;-71
2022/03/08 10:47:07;;;;;;;1.60;1.50;;;;;;;;;;1720627;83;21068;-71
2022/03/08 10:49:34;;;;;;;1.57;1.45;;;;;;;;;;1729538;82;21551;-71
2022/03/08 10:52:02;;;;;;;2.25;1.50;;;;;;;;;;1729823;83;21002;-71
2022/03/08 10:54:29;;;;;;;1.87;1.60;;;;;;;;;;1729859;83;21044;-71
2022/03/08 10:56:56;;;;;;;2.45;1.70;;;;;;;;;;1729724;82;21037;-71
2022/03/08 10:59:22;;;;;;;1.98;1.50;;;;;;;;;;1729823;83;21032;-70
2022/03/08 11:01:49;;;;;;;1.60;1.50;;;;;;;;;;1729628;82;21104;-70
2022/03/08 11:04:17;;;;;;;2.22;1.52;;;;;;;;;;1729512;81;21627;-72
2022/03/08 11:06:44;;;;;;;1.85;1.40;;;;;;;;;;1729693;83;21095;-72
2022/03/08 11:09:13;;;;;;;2.00;1.50;;;;;;;;;;1729486;82;21068;-72
2022/03/08 11:11:39;;;;;;;1.52;1.42;;;;;;;;;;1729858;83;21068;-72
2022/03/08 11:14:06;;;;;;;1.70;1.40;;;;;;;;;;1729811;82;21056;-72
2022/03/08 11:16:33;;;;;;;1.60;1.50;;;;;;;;;;1729783;82;21608;-72
2022/03/08 11:18:59;;;;;;;1.70;1.57;;;;;;;;;;1729874;83;21040;-72
2022/03/08 11:21:26;;;;;;;1.90;1.62;;;;;;;;;;1729641;82;21068;-72
2022/03/08 11:23:53;;;;;;;2.05;1.55;;;;;;;;;;1729749;83;21103;-72
2022/03/08 11:26:20;;;;;;;2.67;1.60;;;;;;;;;;1729771;83;21041;-71
2022/03/08 11:28:48;;;;;;;3.98;1.98;;;;;;;;;;1729625;83;21575;-72
2022/03/08 11:31:18;;;;;;;1.37;1.27;;;;;;;;;;1729652;83;21655;-71
2022/03/08 11:34:03;;;;;;;1.57;1.45;;;;;;;;;;1729652;83;21504;-71
2022/03/08 11:36:34;;;;;;;1.90;1.40;;;;;;;;;;1729624;82;21005;-72
2022/03/08 11:39:11;;;;;;;2.45;1.47;;;;;;;;;;1729678;83;21052;-71
2022/03/08 11:41:39;;;;;;;2.72;1.30;;;;;;;;;;1729700;82;21091;-71
2022/03/08 11:44:06;;;;;;;2.92;1.72;;;;;;;;;;1729766;83;21098;-73
2022/03/08 11:46:34;;;;;;;2.35;1.40;;;;;;;;;;1729815;82;21092;-73
2022/03/08 11:49:02;;;;;;;1.95;1.67;;;;;;;;;;1729388;82;21021;-73
2022/03/08 11:51:29;;;;;;;2.12;1.70;;;;;;;;;;1729590;83;21076;-70
2022/03/08 11:54:03;;;;;;;2.17;1.62;;;;;;;;;;1729735;83;21508;-71
2022/03/08 11:56:30;;;;;;;2.42;1.67;;;;;;;;;;1729594;83;21049;-71
2022/03/08 11:58:59;;;;;;;1.62;1.50;;;;;;;;;;1729587;82;21116;-72
2022/03/08 12:01:26;;;;;;;3.02;1.72;;;;;;;;;;1728521;82;21060;-71
2022/03/08 12:03:54;;;;;;;1.90;1.60;;;;;;;;;;1729366;81;21104;-70
2022/03/08 12:06:22;;;;;;;2.40;1.60;;;;;;;;;;1729627;82;21572;-70
2022/03/08 12:08:52;;;;;;;1.42;1.32;;;;;;;;;;1729199;82;21033;-74
2022/03/08 12:13:10;;;;;;;2.12;1.62;;;;;;;;;;1801292;79;22794;-68
2022/03/08 12:15:38;;;;;;;1.52;1.42;;;;;;;;;;1761918;81;21064;-68
2022/03/08 12:18:21;;;;;;;2.22;1.82;;;;;;;;;;1761230;81;21063;-68
2022/03/08 12:20:47;;;;;;;1.65;1.55;;;;;;;;;;1760864;81;21049;-69
2022/03/08 12:23:13;;;;;;;2.65;1.67;;;;;;;;;;1761581;81;21032;-69
2022/03/08 12:25:39;;;;;;;1.75;1.30;;;;;;;;;;1761983;81;21077;-68
2022/03/08 12:28:07;;;;;;;1.70;1.40;;;;;;;;;;1761786;81;21076;-68
2022/03/08 12:30:37;;;;;;;1.90;1.70;;;;;;;;;;1761549;81;21025;-68
2022/03/08 12:33:03;;;;;;;1.80;1.50;;;;;;;;;;1761752;81;21516;-69
2022/03/08 12:35:30;;;;;;;2.70;1.62;;;;;;;;;;1761792;81;20980;-69
2022/03/08 12:37:58;;;;;;;1.82;1.62;;;;;;;;;;1761564;81;21068;-69
2022/03/08 12:40:26;;;;;;;1.80;1.45;;;;;;;;;;1761794;81;22121;-69
2022/03/08 12:42:53;;;;;;;1.40;1.30;;;;;;;;;;1761860;81;21477;-69
2022/03/08 12:45:21;;;;;;;1.80;1.67;;;;;;;;;;1761786;81;21084;-69
2022/03/08 12:47:50;;;;;;;2.27;1.60;;;;;;;;;;1761579;81;21001;-68
2022/03/08 12:50:17;;;;;;;2.42;1.90;;;;;;;;;;1761845;81;21040;-68
2022/03/08 12:52:49;;;;;;;2.65;1.72;;;;;;;;;;1761586;81;21520;-68
2022/03/08 12:55:17;;;;;;;1.67;1.52;;;;;;;;;;1761931;81;21036;-68
2022/03/08 12:57:50;;;;;;;3.20;2.35;;;;;;;;;;1761911;81;21067;-68
2022/03/08 13:00:28;;;;;;;2.52;1.80;;;;;;;;;;1761771;81;21068;-68
2022/03/08 13:02:55;;;;;;;1.85;1.60;;;;;;;;;;1754039;81;21064;-68
2022/03/08 13:05:25;;;;;;;2.52;1.85;;;;;;;;;;1728092;83;21059;-70
2022/03/08 13:07:52;;;;;;;1.77;1.57;;;;;;;;;;1728447;83;21015;-70
2022/03/08 13:10:20;;;;;;;2.47;1.52;;;;;;;;;;1728450;83;21019;-68
2022/03/08 13:12:52;;;;;;;3.75;2.52;;;;;;;;;;1722318;83;21132;-68
2022/03/08 13:15:18;;;;;;;3.33;2.20;;;;;;;;;;1720303;83;21559;-68
2022/03/08 13:17:46;;;;;;;2.75;1.85;;;;;;;;;;1720707;83;20996;-68
2022/03/08 13:20:26;;;;;;;1.90;1.70;;;;;;;;;;1720466;83;21024;-68
2022/03/08 13:22:53;;;;;;;2.35;1.82;;;;;;;;;;1720229;83;21047;-68
2022/03/08 13:25:20;;;;;;;2.15;1.80;;;;;;;;;;1719859;83;21039;-69
2022/03/08 13:27:50;;;;;;;1.60;1.50;;;;;;;;;;1720202;83;21492;-69
2022/03/08 13:30:18;;;;;;;2.58;1.65;;;;;;;;;;1720158;83;21524;-69
2022/03/08 13:32:45;;;;;;;1.40;1.30;;;;;;;;;;1719835;83;21039;-70
2022/03/08 13:35:11;;;;;;;1.80;1.60;;;;;;;;;;1720082;83;21089;-68
2022/03/08 13:37:47;;;;;;;2.65;1.95;;;;;;;;;;1720014;83;21535;-69
2022/03/08 13:40:26;;;;;;;2.25;1.60;;;;;;;;;;1719769;83;21000;-69
2022/03/08 13:42:54;;;;;;;2.58;1.80;;;;;;;;;;1720073;83;20996;-68
2022/03/08 13:45:21;;;;;;;1.80;1.65;;;;;;;;;;1719727;83;21563;-68
2022/03/08 13:47:51;;;;;;;2.87;1.50;;;;;;;;;;1719991;83;21156;-68
2022/03/08 13:50:15;;;;;;;2.00;1.55;;;;;;;;;;1719621;83;21063;-69
2022/03/08 13:52:44;;;;;;;3.75;1.90;;;;;;;;;;1719989;83;21103;-69
2022/03/08 13:55:12;;;;;;;2.95;1.52;;;;;;;;;;1717616;82;21561;-70
2022/03/08 13:57:38;;;;;;;2.33;1.52;;;;;;;;;;1720043;83;21083;-69
2022/03/08 14:00:08;;;;;;;1.90;1.70;;;;;;;;;;1691474;83;21044;-70
2022/03/08 14:02:36;;;;;;;2.35;1.70;;;;;;;;;;1719696;82;21048;-71
2022/03/08 14:05:06;;;;;;;2.33;1.70;;;;;;;;;;1719961;83;21540;-70
2022/03/08 14:07:33;;;;;;;2.37;1.52;;;;;;;;;;1719864;83;21067;-68
2022/03/08 14:10:05;;;;;;;1.98;1.60;;;;;;;;;;1719892;83;21080;-69
2022/03/08 14:12:42;;;;;;;2.10;1.60;;;;;;;;;;1719845;83;21095;-69
2022/03/08 14:15:08;;;;;;;2.17;1.80;;;;;;;;;;1720041;83;21024;-69
2022/03/08 14:17:35;;;;;;;2.75;1.80;;;;;;;;;;1719558;83;21114;-69
2022/03/08 14:20:14;;;;;;;3.35;1.90;;;;;;;;;;1720019;83;21602;-69
2022/03/08 14:23:00;;;;;;;3.72;1.82;;;;;;;;;;1719944;83;21064;-69
2022/03/08 14:25:26;;;;;;;2.40;1.60;;;;;;;;;;1719963;83;21025;-70
2022/03/08 14:27:53;;;;;;;2.52;1.70;;;;;;;;;;1720085;83;21586;-70
2022/03/08 14:30:22;;;;;;;2.05;1.80;;;;;;;;;;1719952;83;21075;-70
2022/03/08 14:32:49;;;;;;;2.72;1.95;;;;;;;;;;1719989;83;21083;-69
2022/03/08 14:35:16;;;;;;;2.45;1.90;;;;;;;;;;1719930;83;21539;-69
2022/03/08 14:37:42;;;;;;;3.77;2.05;;;;;;;;;;1719965;83;21020;-72
2022/03/08 14:40:09;;;;;;;2.02;1.80;;;;;;;;;;1720150;83;21059;-69
2022/03/08 14:42:37;;;;;;;2.77;2.00;;;;;;;;;;1719748;83;21584;-70
2022/03/08 14:45:05;;;;;;;2.22;1.80;;;;;;;;;;1720093;83;21547;-70
2022/03/08 14:47:33;;;;;;;2.92;1.95;;;;;;;;;;1719758;82;21095;-71